Time;durP1;ratioP1;P1;durP2;ratioP2;P2;SDS_P1;SDS_P2;PMS_P1;PMS_P2;Temp;Humidity;BMP_temperature;BMP_pressure;BME280_temperature;BME280_humidity;BME280_pressure;Samples;Min_cycle;Max_cycle;Signal;HPM_P1;HPM_P2
2020/12/18 00:01:42;;;;;;;6.37;5.53;;;;;;;5.56;82.47;100983.88;5063341;28;20473;-70
2020/12/18 00:04:08;;;;;;;6.93;5.53;;;;;;;5.60;82.24;100978.28;5064375;28;20495;-71
2020/12/18 00:06:35;;;;;;;9.30;5.27;;;;;;;5.68;81.56;100977.81;5063442;28;20543;-70
2020/12/18 00:09:02;;;;;;;9.30;4.93;;;;;;;5.72;81.41;100979.34;5064773;28;20444;-72
2020/12/18 00:11:29;;;;;;;9.23;5.13;;;;;;;5.72;81.26;100975.84;5063262;28;20500;-71
2020/12/18 00:13:55;;;;;;;6.47;4.63;;;;;;;5.65;81.62;100975.34;5064554;28;20455;-71
2020/12/18 00:16:23;;;;;;;8.17;5.07;;;;;;;5.59;81.88;100973.94;5063594;28;21105;-73
2020/12/18 00:18:49;;;;;;;6.50;4.20;;;;;;;5.58;82.00;100971.34;5066299;28;20491;-74
2020/12/18 00:21:20;;;;;;;4.63;4.20;;;;;;;5.55;81.76;100968.88;5071938;28;20484;-73
2020/12/18 00:23:46;;;;;;;8.27;4.83;;;;;;;5.58;81.71;100972.19;5064879;28;20469;-72
2020/12/18 00:26:12;;;;;;;3.77;3.23;;;;;;;5.48;82.30;100979.00;5062552;28;20508;-73
2020/12/18 00:28:39;;;;;;;9.17;4.13;;;;;;;5.45;82.23;100972.09;5076545;28;20480;-70
2020/12/18 00:31:05;;;;;;;6.63;4.40;;;;;;;5.51;82.28;100972.66;5085284;28;20506;-65
2020/12/18 00:33:32;;;;;;;8.20;3.80;;;;;;;5.44;82.20;100974.81;5088332;28;20452;-65
2020/12/18 00:35:58;;;;;;;10.73;3.83;;;;;;;5.50;81.97;100970.94;5084324;28;20491;-65
2020/12/18 00:38:24;;;;;;;7.17;3.50;;;;;;;5.44;82.47;100974.81;5085440;28;20470;-65
2020/12/18 00:40:50;;;;;;;6.00;3.40;;;;;;;5.39;82.71;100975.06;5084252;28;20941;-65
2020/12/18 00:43:16;;;;;;;5.63;3.90;;;;;;;5.37;82.43;100978.78;5085565;28;20500;-65
2020/12/18 00:45:43;;;;;;;9.07;4.07;;;;;;;5.39;82.56;100974.25;5084064;28;20536;-65
2020/12/18 00:48:10;;;;;;;8.63;3.60;;;;;;;5.41;82.63;100980.31;5085237;28;20459;-65
2020/12/18 00:50:36;;;;;;;7.47;3.87;;;;;;;5.54;82.24;100993.69;5084025;28;20487;-65
2020/12/18 00:53:04;;;;;;;5.60;3.43;;;;;;;5.61;82.08;100985.28;5085791;28;20837;-65
2020/12/18 00:55:30;;;;;;;3.60;3.27;;;;;;;5.69;81.68;100997.25;5083870;28;20498;-65
2020/12/18 00:57:56;;;;;;;5.60;3.40;;;;;;;5.70;81.61;100997.16;5085188;28;20460;-65
2020/12/18 01:00:22;;;;;;;6.63;3.83;;;;;;;5.69;81.57;100998.09;5084094;28;20523;-65
2020/12/18 01:02:49;;;;;;;7.07;3.70;;;;;;;5.62;82.02;100994.09;5084934;28;21076;-65
2020/12/18 01:05:15;;;;;;;4.93;3.30;;;;;;;5.69;81.61;100997.25;5083214;28;20471;-65
2020/12/18 01:07:41;;;;;;;7.93;3.27;;;;;;;5.72;81.60;100994.41;5085533;28;20444;-65
2020/12/18 01:10:07;;;;;;;7.90;3.43;;;;;;;5.75;81.60;100991.59;5083030;28;20468;-65
2020/12/18 01:12:33;;;;;;;7.00;4.07;;;;;;;5.77;81.40;100993.19;5085423;28;20525;-65
2020/12/18 01:15:00;;;;;;;3.07;2.60;;;;;;;5.81;80.97;100989.41;5084743;28;20472;-65
2020/12/18 01:17:26;;;;;;;5.07;3.37;;;;;;;5.84;81.16;100994.53;5083649;28;20552;-65
2020/12/18 01:19:53;;;;;;;5.80;3.43;;;;;;;5.84;81.39;100991.03;5084529;28;20480;-65
2020/12/18 01:22:19;;;;;;;6.47;3.80;;;;;;;5.98;80.44;100999.03;5083397;28;20476;-65
2020/12/18 01:24:45;;;;;;;9.00;4.00;;;;;;;5.94;80.77;100992.19;5084052;28;20480;-65
2020/12/18 01:27:12;;;;;;;4.90;3.37;;;;;;;6.00;80.83;100983.88;5082601;28;20496;-65
2020/12/18 01:29:38;;;;;;;6.13;3.40;;;;;;;5.96;80.99;100985.00;5084785;28;20447;-65
2020/12/18 01:32:04;;;;;;;5.40;3.37;;;;;;;6.01;80.48;100990.91;5083301;28;20496;-65
2020/12/18 01:34:30;;;;;;;3.27;2.97;;;;;;;6.02;80.81;100992.63;5084345;28;20452;-65
2020/12/18 01:36:57;;;;;;;7.37;3.60;;;;;;;6.13;80.69;100993.78;5083621;28;20503;-65
2020/12/18 01:39:23;;;;;;;7.40;3.50;;;;;;;6.11;80.77;100996.50;5085010;28;20482;-66
2020/12/18 01:41:49;;;;;;;4.37;3.83;;;;;;;6.14;81.03;101001.59;5083528;28;20565;-66
2020/12/18 01:44:15;;;;;;;8.23;3.73;;;;;;;6.18;80.31;101012.91;5084647;28;20514;-65
2020/12/18 01:46:42;;;;;;;8.50;4.13;;;;;;;6.17;80.69;101008.56;5082996;28;20475;-66
2020/12/18 01:49:08;;;;;;;4.97;3.83;;;;;;;6.25;80.75;101008.94;5084494;28;20591;-66
2020/12/18 01:51:34;;;;;;;7.03;4.20;;;;;;;6.20;81.02;101005.72;5083576;28;20547;-65
2020/12/18 01:54:01;;;;;;;5.40;3.80;;;;;;;6.29;80.36;101017.56;5085025;28;20447;-65
2020/12/18 01:56:27;;;;;;;5.83;3.87;;;;;;;6.34;80.47;101011.03;5082439;28;20527;-65
2020/12/18 01:58:54;;;;;;;6.57;4.13;;;;;;;6.34;80.20;101005.72;5084670;28;20479;-66
2020/12/18 02:01:20;;;;;;;5.73;4.60;;;;;;;6.25;80.29;101006.28;5083258;28;20475;-66
2020/12/18 02:03:46;;;;;;;6.93;4.27;;;;;;;6.31;80.40;101003.25;5084090;28;20483;-65
2020/12/18 02:06:15;;;;;;;9.83;5.50;;;;;;;6.36;80.22;100995.00;5082829;28;20506;-65
2020/12/18 02:08:43;;;;;;;5.47;4.30;;;;;;;6.30;80.11;100998.91;5084861;28;20583;-65
2020/12/18 02:11:12;;;;;;;6.87;4.27;;;;;;;6.30;80.29;100992.72;5083143;28;20515;-66
2020/12/18 02:13:38;;;;;;;4.57;3.60;;;;;;;6.29;80.39;100993.69;5084856;28;20439;-66
2020/12/18 02:16:04;;;;;;;7.77;3.97;;;;;;;6.25;80.47;100997.44;5082832;28;20475;-66
2020/12/18 02:18:31;;;;;;;5.00;3.83;;;;;;;6.25;80.53;100997.44;5086554;28;20448;-65
2020/12/18 02:20:57;;;;;;;8.90;4.67;;;;;;;6.04;80.88;101003.13;5086572;28;20535;-66
2020/12/18 02:23:23;;;;;;;6.83;4.20;;;;;;;5.94;81.69;101000.16;5088714;28;20538;-66
2020/12/18 02:26:04;;;;;;;7.30;4.50;;;;;;;6.01;81.23;101003.31;5086095;28;20514;-65
2020/12/18 02:28:30;;;;;;;5.97;3.70;;;;;;;5.95;81.84;100999.19;5087835;28;20486;-66
2020/12/18 02:30:56;;;;;;;7.90;4.27;;;;;;;6.10;81.39;100989.47;5086761;28;20526;-66
2020/12/18 02:33:22;;;;;;;5.63;4.10;;;;;;;6.00;81.97;100993.63;5088141;28;20452;-65
2020/12/18 02:35:48;;;;;;;7.73;4.67;;;;;;;6.07;81.31;100997.63;5086696;28;20946;-66
2020/12/18 02:38:14;;;;;;;5.03;4.07;;;;;;;6.12;80.81;101000.00;5088374;28;20467;-65
2020/12/18 02:40:40;;;;;;;5.93;4.00;;;;;;;6.08;81.04;100993.19;5086461;28;20491;-66
2020/12/18 02:43:07;;;;;;;8.93;4.13;;;;;;;6.00;81.48;100989.19;5087818;28;20468;-65
2020/12/18 02:45:34;;;;;;;5.20;4.37;;;;;;;6.06;81.56;100997.72;5066280;28;20572;-65
2020/12/18 02:48:00;;;;;;;9.20;4.30;;;;;;;6.01;81.53;100988.25;5067645;28;20456;-65
2020/12/18 02:50:26;;;;;;;4.40;3.80;;;;;;;6.02;81.83;100987.31;5086351;28;20456;-65
2020/12/18 02:52:52;;;;;;;4.67;4.17;;;;;;;5.99;81.88;100991.94;5088630;28;20421;-66
2020/12/18 02:55:18;;;;;;;7.20;3.70;;;;;;;6.03;81.36;100975.72;5085774;28;20535;-65
2020/12/18 02:57:44;;;;;;;7.07;3.57;;;;;;;6.05;81.44;100974.78;5088044;28;20503;-66
2020/12/18 03:00:11;;;;;;;7.20;3.87;;;;;;;6.01;81.85;100977.63;5085654;28;20511;-65
2020/12/18 03:02:37;;;;;;;8.13;4.33;;;;;;;6.09;81.40;100984.25;5087651;28;20440;-66
2020/12/18 03:05:04;;;;;;;7.70;3.83;;;;;;;6.03;81.97;100983.69;5087124;28;20537;-66
2020/12/18 03:07:30;;;;;;;9.63;3.93;;;;;;;6.14;81.35;100982.19;5087054;28;20498;-65
2020/12/18 03:09:56;;;;;;;12.47;4.37;;;;;;;6.21;81.42;100984.38;5087293;28;20468;-65
2020/12/18 03:12:22;;;;;;;7.00;4.10;;;;;;;6.22;81.34;100990.53;5085938;28;20536;-65
2020/12/18 03:14:48;;;;;;;8.23;3.80;;;;;;;6.29;80.94;100983.91;5087073;28;20447;-65
2020/12/18 03:17:16;;;;;;;5.90;3.97;;;;;;;6.29;80.79;100985.72;5086400;28;20518;-65
2020/12/18 03:19:42;;;;;;;6.53;4.00;;;;;;;6.26;80.97;100993.84;5086195;28;20491;-65
2020/12/18 03:22:08;;;;;;;6.80;3.40;;;;;;;6.35;80.87;100995.94;5086236;28;20479;-65
2020/12/18 03:24:34;;;;;;;7.37;4.07;;;;;;;6.36;80.64;100990.53;5087168;28;20579;-65
2020/12/18 03:27:00;;;;;;;5.57;3.63;;;;;;;6.42;80.72;100989.28;5085302;28;20508;-65
2020/12/18 03:29:26;;;;;;;4.30;3.90;;;;;;;6.32;80.98;100989.03;5086523;28;20471;-65
2020/12/18 03:31:52;;;;;;;3.83;2.80;;;;;;;6.29;80.79;100991.03;5085618;28;21008;-65
2020/12/18 03:34:20;;;;;;;6.07;3.60;;;;;;;6.31;81.32;100992.63;5086512;28;20539;-65
2020/12/18 03:36:46;;;;;;;6.50;3.47;;;;;;;6.32;81.33;100991.69;5086065;28;20476;-65
2020/12/18 03:39:13;;;;;;;4.93;4.27;;;;;;;6.30;80.93;100992.72;5086646;28;20480;-65
2020/12/18 03:41:39;;;;;;;9.90;4.20;;;;;;;6.34;81.20;100995.09;5085723;28;21024;-64
2020/12/18 03:44:05;;;;;;;8.90;4.10;;;;;;;6.24;81.26;100996.59;5086783;28;20563;-65
2020/12/18 03:46:31;;;;;;;9.33;4.30;;;;;;;6.33;80.79;101001.34;5085472;28;20544;-65
2020/12/18 03:48:57;;;;;;;6.73;3.57;;;;;;;6.35;80.92;101004.78;5085942;28;20479;-63
2020/12/18 03:51:24;;;;;;;6.70;4.43;;;;;;;6.26;81.54;100993.84;5085798;28;20492;-64
2020/12/18 03:53:50;;;;;;;5.20;4.03;;;;;;;6.34;80.97;100997.75;5086692;28;20516;-65
2020/12/18 03:56:16;;;;;;;5.73;5.10;;;;;;;6.39;80.87;100993.00;5085077;28;20476;-65
2020/12/18 03:58:42;;;;;;;4.50;3.40;;;;;;;6.40;80.94;100991.19;5086486;28;20864;-65
2020/12/18 04:01:09;;;;;;;8.30;3.90;;;;;;;6.29;81.30;100993.69;5085120;28;20472;-65
2020/12/18 04:03:35;;;;;;;10.40;4.73;;;;;;;6.25;81.33;101003.63;5086254;28;20552;-65
2020/12/18 04:06:01;;;;;;;5.80;4.27;;;;;;;6.41;81.28;100995.56;5084986;28;20980;-65
2020/12/18 04:08:28;;;;;;;6.43;4.23;;;;;;;6.38;80.80;100999.25;5086250;28;20464;-65
2020/12/18 04:10:54;;;;;;;7.27;4.33;;;;;;;6.51;80.28;100996.69;5084835;28;20474;-64
2020/12/18 04:13:21;;;;;;;8.23;4.07;;;;;;;6.53;80.13;100988.63;5084755;28;20439;-65
2020/12/18 04:15:47;;;;;;;5.37;3.83;;;;;;;6.51;80.70;100998.47;5084352;28;21095;-65
2020/12/18 04:18:13;;;;;;;5.70;3.37;;;;;;;6.51;80.37;100990.50;5085737;28;20487;-64
2020/12/18 04:20:39;;;;;;;9.53;3.50;;;;;;;6.62;79.80;100995.19;5085100;28;20886;-65
2020/12/18 04:23:06;;;;;;;6.30;3.63;;;;;;;6.62;79.77;100995.19;5086482;28;20498;-65
2020/12/18 04:25:33;;;;;;;5.03;2.83;;;;;;;6.68;79.60;100992.13;5084423;28;20468;-65
2020/12/18 04:27:59;;;;;;;6.77;3.70;;;;;;;6.71;79.45;100999.91;5085626;28;20594;-65
2020/12/18 04:30:25;;;;;;;5.90;3.30;;;;;;;6.73;78.92;100990.88;5084319;28;20520;-64
2020/12/18 04:32:51;;;;;;;10.80;3.17;;;;;;;6.76;78.73;100990.69;5086395;28;20448;-65
2020/12/18 04:35:17;;;;;;;3.20;2.83;;;;;;;6.70;78.80;100992.88;5083450;28;20463;-64
2020/12/18 04:37:44;;;;;;;4.33;3.10;;;;;;;6.63;79.14;100978.28;5085816;28;20440;-65
2020/12/18 04:40:10;;;;;;;5.67;2.97;;;;;;;6.52;79.52;100986.91;5084110;28;20911;-64
2020/12/18 04:42:37;;;;;;;5.77;3.03;;;;;;;6.31;80.13;100987.31;5085425;28;20472;-65
2020/12/18 04:45:04;;;;;;;6.33;3.43;;;;;;;6.30;80.02;100984.75;5085392;28;20535;-65
2020/12/18 04:47:30;;;;;;;5.00;3.17;;;;;;;6.15;80.85;100987.41;5085045;28;20501;-65
2020/12/18 04:49:57;;;;;;;6.70;3.47;;;;;;;6.17;80.97;100980.19;5084794;28;20514;-65
2020/12/18 04:52:23;;;;;;;7.53;2.87;;;;;;;5.98;81.55;100979.63;5084439;28;20467;-65
2020/12/18 04:54:49;;;;;;;4.63;3.27;;;;;;;5.96;81.88;100978.84;5085450;28;20441;-64
2020/12/18 04:57:17;;;;;;;5.70;3.47;;;;;;;6.06;81.20;100982.66;5083725;28;20498;-65
2020/12/18 04:59:44;;;;;;;6.07;2.90;;;;;;;5.75;82.28;100976.50;5085134;28;20476;-65
2020/12/18 05:02:10;;;;;;;7.00;2.93;;;;;;;5.54;82.99;100976.00;5084280;28;21118;-65
2020/12/18 05:04:40;;;;;;;6.23;3.53;;;;;;;5.53;83.34;100984.03;5084887;28;20560;-65
2020/12/18 05:07:06;;;;;;;5.60;2.87;;;;;;;5.76;82.38;100980.84;5084191;28;20493;-65
2020/12/18 05:09:32;;;;;;;5.67;3.23;;;;;;;5.57;83.10;100975.81;5084346;28;20520;-65
2020/12/18 05:12:04;;;;;;;4.73;3.23;;;;;;;5.57;83.51;100978.47;5080437;28;20496;-65
2020/12/18 05:14:30;;;;;;;10.33;3.53;;;;;;;5.70;82.64;100975.09;5077154;28;20444;-65
2020/12/18 05:17:04;;;;;;;4.20;3.27;;;;;;;5.54;82.83;100978.66;5082927;28;20483;-65
2020/12/18 05:19:35;;;;;;;8.03;3.47;;;;;;;5.50;83.28;100978.91;5083549;28;20496;-65
2020/12/18 05:22:04;;;;;;;6.70;3.40;;;;;;;5.53;83.07;100978.72;5082275;28;20502;-65
2020/12/18 05:24:30;;;;;;;5.33;3.07;;;;;;;5.32;83.60;100979.03;5084090;28;20539;-65
2020/12/18 05:26:56;;;;;;;5.83;3.67;;;;;;;5.21;84.15;100977.00;5081950;28;20484;-65
2020/12/18 05:29:23;;;;;;;5.03;3.33;;;;;;;5.36;84.02;100977.06;5083299;28;20567;-65
2020/12/18 05:31:49;;;;;;;4.77;3.17;;;;;;;5.19;84.42;100978.91;5083183;28;20505;-65
2020/12/18 05:34:16;;;;;;;4.97;2.93;;;;;;;5.12;84.28;100974.91;5083457;28;20479;-65
2020/12/18 05:36:42;;;;;;;7.43;3.73;;;;;;;5.11;84.79;100967.88;5081999;28;21158;-65
2020/12/18 05:39:10;;;;;;;6.33;3.30;;;;;;;4.92;85.18;100983.97;5083950;28;20447;-65
2020/12/18 05:41:37;;;;;;;4.90;4.00;;;;;;;4.92;85.55;100981.31;5082456;28;20568;-65
2020/12/18 05:44:05;;;;;;;5.70;3.30;;;;;;;4.95;85.60;100969.66;5083543;28;20558;-65
2020/12/18 05:46:32;;;;;;;5.20;3.30;;;;;;;4.80;85.67;100974.06;5082959;28;20920;-65
2020/12/18 05:48:59;;;;;;;8.77;4.37;;;;;;;4.90;85.51;100980.56;5083706;28;20456;-65
2020/12/18 05:51:30;;;;;;;8.60;3.93;;;;;;;4.95;85.24;100977.63;5082220;28;20476;-65
2020/12/18 05:54:11;;;;;;;4.33;3.93;;;;;;;4.90;85.22;100968.16;5082968;28;20440;-65
2020/12/18 05:56:37;;;;;;;8.27;3.80;;;;;;;4.83;85.75;100972.09;5082251;28;20586;-65
2020/12/18 05:59:11;;;;;;;6.73;3.70;;;;;;;4.86;85.35;100977.22;5083346;28;20480;-65
2020/12/18 06:01:40;;;;;;;4.60;3.50;;;;;;;4.80;86.01;100979.34;5082584;28;20563;-65
2020/12/18 06:04:10;;;;;;;6.20;3.80;;;;;;;4.79;86.10;100978.50;5083409;28;20510;-65
2020/12/18 06:06:41;;;;;;;7.90;3.63;;;;;;;4.65;86.16;100984.56;5081522;28;20559;-65
2020/12/18 06:09:08;;;;;;;4.63;3.40;;;;;;;4.69;86.56;100982.59;5083557;28;20475;-65
2020/12/18 06:11:35;;;;;;;4.83;3.90;;;;;;;4.69;86.48;100975.50;5081138;28;20487;-65
2020/12/18 06:14:02;;;;;;;4.80;3.77;;;;;;;4.76;86.48;100978.66;5083008;28;20999;-65
2020/12/18 06:16:29;;;;;;;8.27;4.00;;;;;;;4.67;86.41;100987.09;5082393;28;20487;-65
2020/12/18 06:19:02;;;;;;;7.10;3.63;;;;;;;4.78;86.47;100982.09;5083392;28;20467;-65
2020/12/18 06:21:29;;;;;;;5.33;3.50;;;;;;;4.84;86.02;100991.47;5081538;28;20510;-65
2020/12/18 06:23:55;;;;;;;4.50;3.70;;;;;;;4.95;85.27;100978.50;5083952;28;20837;-65
2020/12/18 06:26:22;;;;;;;9.73;4.00;;;;;;;4.83;85.72;100969.44;5081188;28;20503;-65
2020/12/18 06:28:48;;;;;;;6.90;3.70;;;;;;;4.85;86.37;100975.50;5082938;28;20526;-64
2020/12/18 06:31:23;;;;;;;7.07;3.83;;;;;;;4.78;86.36;100960.88;5081899;28;20492;-66
2020/12/18 06:33:50;;;;;;;8.43;3.93;;;;;;;4.73;86.71;100976.19;5083553;28;20471;-66
2020/12/18 06:36:17;;;;;;;7.70;4.30;;;;;;;4.86;86.53;100973.69;5081299;28;20476;-66
2020/12/18 06:38:43;;;;;;;5.63;4.20;;;;;;;5.00;85.62;100976.44;5083552;28;20978;-66
2020/12/18 06:41:24;;;;;;;13.93;4.20;;;;;;;5.03;85.23;100975.41;5071993;28;20574;-66
2020/12/18 06:43:50;;;;;;;6.67;3.67;;;;;;;4.92;85.69;100981.31;5081152;28;20467;-66
2020/12/18 06:46:19;;;;;;;6.63;3.90;;;;;;;5.22;84.67;100977.84;5079522;28;20475;-65
2020/12/18 06:48:50;;;;;;;4.63;3.43;;;;;;;5.18;84.33;100969.22;5080726;28;20448;-66
2020/12/18 06:51:27;;;;;;;9.77;3.90;;;;;;;5.04;85.23;100972.66;5078871;28;20885;-65
2020/12/18 06:54:17;;;;;;;9.27;3.83;;;;;;;5.27;84.12;100975.78;5081682;28;20424;-65
2020/12/18 06:56:44;;;;;;;7.33;4.40;;;;;;;5.15;84.43;100971.19;5058238;28;20480;-64
2020/12/18 06:59:20;;;;;;;6.60;4.20;;;;;;;5.05;84.92;100970.88;5086893;28;20451;-66
2020/12/18 07:01:48;;;;;;;9.50;4.03;;;;;;;5.05;84.92;100965.56;5081834;28;20578;-68
2020/12/18 07:04:21;;;;;;;8.07;3.80;;;;;;;4.98;85.32;100958.91;5080982;28;20491;-69
2020/12/18 07:06:47;;;;;;;10.17;4.10;;;;;;;4.86;85.91;100965.75;5072553;28;20496;-69
2020/12/18 07:09:14;;;;;;;12.67;4.33;;;;;;;4.85;85.68;100966.72;5079446;28;20484;-69
2020/12/18 07:14:16;;;;;;;7.10;3.83;;;;;;;4.82;85.64;100962.41;5372216;23;20475;-68
2020/12/18 07:16:52;;;;;;;5.87;4.13;;;;;;;4.77;85.82;100955.69;5029446;28;20474;-68
2020/12/18 07:19:19;;;;;;;5.70;4.10;;;;;;;4.84;85.65;100957.03;5025822;28;20458;-69
2020/12/18 07:21:46;;;;;;;8.70;3.90;;;;;;;4.85;85.75;100964.06;5033547;28;20474;-68
2020/12/18 07:24:13;;;;;;;7.93;4.23;;;;;;;4.93;85.53;100951.25;5039768;28;20490;-71
2020/12/18 07:26:39;;;;;;;6.20;3.90;;;;;;;4.89;85.16;100952.34;5025325;28;20490;-71
2020/12/18 07:29:05;;;;;;;7.60;5.10;;;;;;;4.81;85.84;100939.53;5025505;28;20497;-70
2020/12/18 07:31:32;;;;;;;6.53;3.77;;;;;;;4.71;86.13;100957.72;5030903;28;20506;-71
2020/12/18 07:34:00;;;;;;;8.60;3.43;;;;;;;4.79;85.90;100944.06;5038277;28;20445;-70
2020/12/18 07:36:27;;;;;;;6.00;4.17;;;;;;;4.90;85.27;100951.41;5023484;28;20521;-71
2020/12/18 07:38:57;;;;;;;13.07;3.57;;;;;;;4.92;85.34;100946.88;5025603;28;20946;-71
2020/12/18 07:41:24;;;;;;;4.50;3.57;;;;;;;4.87;85.14;100938.31;5029023;28;20477;-71
2020/12/18 07:43:50;;;;;;;4.80;3.70;;;;;;;4.91;85.16;100939.84;5044399;28;20485;-71
2020/12/18 07:46:17;;;;;;;4.37;3.30;;;;;;;5.03;84.73;100946.25;5044336;28;20462;-71
2020/12/18 07:48:46;;;;;;;5.30;3.10;;;;;;;5.01;84.89;100946.34;5046099;28;20426;-71
2020/12/18 07:51:16;;;;;;;6.87;3.40;;;;;;;5.00;84.90;100947.28;5043350;28;20492;-72
2020/12/18 07:53:43;;;;;;;8.13;3.70;;;;;;;4.95;85.13;100946.69;5043437;28;20431;-71
2020/12/18 07:56:10;;;;;;;4.10;3.20;;;;;;;5.03;84.51;100949.75;5035799;28;20486;-71
2020/12/18 07:58:46;;;;;;;16.73;4.17;;;;;;;5.09;84.62;100948.56;5025550;28;20443;-71
2020/12/18 08:01:28;;;;;;;5.87;3.60;;;;;;;5.16;84.23;100955.22;5025319;28;20474;-71
2020/12/18 08:03:57;;;;;;;7.57;3.37;;;;;;;5.29;83.64;100955.34;4936674;29;20486;-72
2020/12/18 08:06:24;;;;;;;8.10;3.20;;;;;;;5.36;83.23;100959.34;4953180;28;20473;-73
2020/12/18 08:08:53;;;;;;;6.30;2.77;;;;;;;5.37;83.04;100954.91;4952648;29;20439;-73
2020/12/18 08:11:20;;;;;;;3.80;3.33;;;;;;;5.41;82.82;100937.88;4957100;29;20505;-72
2020/12/18 08:13:47;;;;;;;5.30;2.93;;;;;;;5.55;82.39;100948.50;4944491;29;20482;-73
2020/12/18 08:16:15;;;;;;;5.10;3.20;;;;;;;5.61;82.15;100948.16;4965393;28;20488;-73
2020/12/18 08:19:03;;;;;;;5.40;4.00;;;;;;;5.68;81.81;100947.78;4956225;29;20435;-74
2020/12/18 08:21:31;;;;;;;6.63;3.23;;;;;;;5.73;81.26;100943.91;4877052;29;20469;-73
2020/12/18 08:24:03;;;;;;;6.50;3.40;;;;;;;5.71;81.76;100945.81;4880187;29;20486;-71
2020/12/18 08:26:33;;;;;;;5.60;2.80;;;;;;;5.73;81.52;100933.31;4878703;29;20490;-71
2020/12/18 08:28:59;;;;;;;6.33;3.27;;;;;;;5.76;81.59;100934.91;4883237;29;20586;-72
2020/12/18 08:31:27;;;;;;;6.37;3.30;;;;;;;5.79;81.19;100932.91;4876323;29;20489;-72
2020/12/18 08:33:55;;;;;;;4.23;3.10;;;;;;;5.90;81.09;100937.56;4880699;29;20462;-72
2020/12/18 08:36:23;;;;;;;6.73;3.27;;;;;;;6.14;79.89;100932.59;4881860;29;20485;-72
2020/12/18 08:39:05;;;;;;;4.00;2.93;;;;;;;6.07;79.87;100943.69;4882494;29;20461;-71
2020/12/18 08:41:49;;;;;;;6.50;3.00;;;;;;;6.16;79.52;100937.81;4933464;28;20511;-72
2020/12/18 08:44:17;;;;;;;3.73;2.40;;;;;;;6.27;79.05;100950.41;4957618;28;21171;-71
2020/12/18 08:46:43;;;;;;;7.57;3.07;;;;;;;6.40;78.48;100946.88;4957452;28;21038;-71
2020/12/18 08:49:19;;;;;;;5.43;2.93;;;;;;;6.42;78.26;100944.13;4965240;28;20438;-73
2020/12/18 08:51:46;;;;;;;5.60;3.10;;;;;;;6.70;77.05;100943.25;4975035;28;20613;-73
2020/12/18 08:54:28;;;;;;;5.03;2.27;;;;;;;6.90;76.35;100946.41;4960671;28;20453;-72
2020/12/18 08:57:14;;;;;;;2.60;2.40;;;;;;;7.44;74.28;100945.53;4954976;28;20490;-71
2020/12/18 08:59:41;;;;;;;4.83;2.40;;;;;;;8.06;71.70;100943.00;5017659;28;20453;-71
2020/12/18 09:02:15;;;;;;;4.87;2.50;;;;;;;8.04;71.36;100949.44;5021001;28;20481;-71
2020/12/18 09:04:42;;;;;;;7.43;2.70;;;;;;;7.91;72.04;100941.41;5024895;28;21016;-71
2020/12/18 09:07:08;;;;;;;8.20;2.20;;;;;;;7.99;71.95;100943.56;5026695;28;20471;-70
2020/12/18 09:09:35;;;;;;;4.03;2.43;;;;;;;8.35;70.84;100939.25;5027499;28;20493;-71
2020/12/18 09:12:14;;;;;;;4.80;2.80;;;;;;;8.44;69.88;100942.16;5019406;28;20478;-73
2020/12/18 09:14:40;;;;;;;5.63;2.40;;;;;;;8.38;69.88;100953.19;5022615;28;20470;-71
2020/12/18 09:17:07;;;;;;;6.90;2.20;;;;;;;7.90;71.16;100943.25;5024542;28;20486;-71
2020/12/18 09:19:33;;;;;;;2.60;2.40;;;;;;;8.05;71.02;100951.94;5024350;28;20465;-70
2020/12/18 09:22:02;;;;;;;8.60;2.37;;;;;;;8.12;70.79;100949.72;5028203;28;20538;-71
2020/12/18 09:24:29;;;;;;;7.53;2.50;;;;;;;8.09;70.98;100953.47;5040670;28;20467;-71
2020/12/18 09:27:08;;;;;;;7.40;2.90;;;;;;;7.82;71.86;100952.72;5025912;28;20505;-71
2020/12/18 09:29:35;;;;;;;6.67;2.33;;;;;;;7.74;72.88;100939.91;5035412;28;20516;-70
2020/12/18 09:32:01;;;;;;;9.70;2.73;;;;;;;8.27;70.29;100945.13;5023974;28;20474;-72
2020/12/18 09:34:28;;;;;;;3.53;1.73;;;;;;;8.66;69.06;100944.13;5044302;28;20446;-71
2020/12/18 09:36:55;;;;;;;5.03;1.70;;;;;;;8.77;68.39;100940.69;5025946;28;20482;-71
2020/12/18 09:39:21;;;;;;;3.80;2.20;;;;;;;8.00;71.17;100948.78;5024485;28;20451;-71
2020/12/18 09:41:47;;;;;;;3.83;2.33;;;;;;;8.16;70.95;100942.38;5023528;28;20975;-71
2020/12/18 09:44:14;;;;;;;2.87;2.30;;;;;;;8.27;70.14;100939.81;5036084;28;20693;-71
2020/12/18 09:46:40;;;;;;;3.40;2.10;;;;;;;8.45;70.06;100956.31;5025161;28;20478;-71
2020/12/18 09:49:06;;;;;;;4.33;2.13;;;;;;;8.96;68.01;100952.69;5023724;28;20446;-73
2020/12/18 09:51:34;;;;;;;4.40;2.20;;;;;;;9.04;67.67;100939.59;5027806;28;20486;-72
2020/12/18 09:54:00;;;;;;;5.03;2.00;;;;;;;9.34;66.41;100956.94;5024488;28;20443;-73
2020/12/18 09:56:26;;;;;;;3.60;2.00;;;;;;;10.21;64.07;100953.84;5025018;28;20474;-73
2020/12/18 09:58:52;;;;;;;4.57;1.90;;;;;;;9.69;64.88;100962.31;5025741;28;20446;-72
2020/12/18 10:01:23;;;;;;;4.60;2.60;;;;;;;9.58;65.77;100963.13;5022080;28;20466;-70
2020/12/18 10:03:49;;;;;;;8.37;2.37;;;;;;;9.32;66.44;100970.44;5026634;28;20525;-71
2020/12/18 10:06:16;;;;;;;5.27;2.10;;;;;;;9.82;64.91;100966.69;5022100;28;20482;-72
2020/12/18 10:08:42;;;;;;;3.80;1.77;;;;;;;9.59;65.09;100970.16;5025335;28;20477;-71
2020/12/18 10:11:08;;;;;;;3.90;1.90;;;;;;;10.06;63.03;100967.47;5022450;28;20479;-72
2020/12/18 10:13:34;;;;;;;4.17;2.10;;;;;;;9.06;66.37;100961.66;5023501;28;20497;-72
2020/12/18 10:16:01;;;;;;;5.07;2.80;;;;;;;8.98;67.10;100956.91;5022360;28;20470;-72
2020/12/18 10:18:28;;;;;;;4.90;2.40;;;;;;;9.39;65.81;100965.47;5020290;28;20998;-72
2020/12/18 10:20:54;;;;;;;5.03;2.30;;;;;;;9.57;65.24;100953.41;5023759;28;20474;-72
2020/12/18 10:23:21;;;;;;;3.77;2.27;;;;;;;10.14;63.27;100956.19;5028094;28;20522;-72
2020/12/18 10:25:47;;;;;;;4.97;2.53;;;;;;;10.38;62.56;100945.41;5021825;28;20474;-72
2020/12/18 10:28:13;;;;;;;5.27;2.13;;;;;;;10.58;61.14;100949.16;5026014;28;20451;-73
2020/12/18 10:30:39;;;;;;;6.57;1.93;;;;;;;10.52;61.84;100941.63;5027773;28;20465;-72
2020/12/18 10:33:06;;;;;;;5.90;2.33;;;;;;;10.62;61.87;100952.44;5029058;28;20699;-73
2020/12/18 10:35:33;;;;;;;5.63;1.73;;;;;;;10.29;62.12;100948.78;5023805;28;20474;-73
2020/12/18 10:38:00;;;;;;;4.07;1.90;;;;;;;10.12;63.29;100956.31;5024995;28;20483;-73
2020/12/18 10:40:27;;;;;;;4.27;1.97;;;;;;;10.45;62.50;100956.44;5028603;28;20542;-72
2020/12/18 10:43:12;;;;;;;5.87;2.20;;;;;;;10.38;61.69;100949.88;5026980;28;20454;-72
2020/12/18 10:45:38;;;;;;;3.97;2.07;;;;;;;10.18;62.98;100947.78;4965771;28;20477;-72
2020/12/18 10:48:04;;;;;;;10.90;2.20;;;;;;;10.60;62.08;100946.34;4967457;28;21025;-72
2020/12/18 10:50:31;;;;;;;3.47;2.17;;;;;;;11.71;60.07;100946.06;4963215;28;20468;-72
2020/12/18 10:53:00;;;;;;;3.90;1.97;;;;;;;11.32;59.25;100959.19;4974223;28;20447;-72
2020/12/18 10:55:26;;;;;;;2.50;1.53;;;;;;;11.18;60.10;100962.13;4971455;28;20519;-72
2020/12/18 10:57:53;;;;;;;3.47;2.00;;;;;;;10.63;62.37;100941.59;4980091;28;20602;-71
2020/12/18 11:00:19;;;;;;;4.53;2.07;;;;;;;10.58;62.31;100954.50;4970843;28;20515;-72
2020/12/18 11:02:45;;;;;;;5.50;2.30;;;;;;;10.83;61.51;100955.19;4971024;28;21706;-79
2020/12/18 11:05:12;;;;;;;5.33;1.80;;;;;;;10.35;62.29;100953.66;4962948;28;20528;-68
2020/12/18 11:07:38;;;;;;;8.87;2.30;;;;;;;10.47;62.77;100959.88;4966511;28;20453;-69
2020/12/18 11:10:05;;;;;;;4.03;2.00;;;;;;;10.18;63.71;100957.63;4967983;28;20453;-70
2020/12/18 11:12:32;;;;;;;6.53;1.97;;;;;;;10.05;63.88;100949.75;4972336;28;20460;-69
2020/12/18 11:14:58;;;;;;;5.40;2.10;;;;;;;10.16;63.31;100946.22;4963936;28;20539;-69
2020/12/18 11:17:25;;;;;;;3.43;2.13;;;;;;;9.86;64.55;100957.47;4967535;28;20477;-68
2020/12/18 11:19:51;;;;;;;4.10;2.20;;;;;;;9.89;64.77;100952.75;4970931;28;20465;-69
2020/12/18 11:22:17;;;;;;;5.43;1.93;;;;;;;10.01;64.04;100952.78;4984897;28;20488;-70
2020/12/18 11:24:44;;;;;;;5.73;2.00;;;;;;;9.98;64.80;100945.81;5037127;28;20486;-70
2020/12/18 11:27:11;;;;;;;6.63;2.57;;;;;;;10.40;63.52;100943.47;5033832;28;20477;-70
2020/12/18 11:29:38;;;;;;;5.97;2.53;;;;;;;10.69;63.03;100942.94;5033062;28;20441;-69
2020/12/18 11:32:04;;;;;;;5.03;2.40;;;;;;;10.50;63.38;100941.75;5036489;28;20477;-70
2020/12/18 11:34:30;;;;;;;6.27;2.57;;;;;;;10.22;64.20;100950.22;5029101;28;20445;-70
2020/12/18 11:36:57;;;;;;;4.53;2.50;;;;;;;10.53;63.74;100932.63;5033475;28;20535;-70